createdAt,value
2023-01-11T00:02:00.571Z,99549.75
2023-01-11T00:04:28.048Z,99540.25
2023-01-11T00:06:55.119Z,99545.06
2023-01-11T00:09:21.950Z,99543.84
2023-01-11T00:11:48.725Z,99537.47
2023-01-11T00:14:15.492Z,99541.47
2023-01-11T00:16:42.394Z,99536.63
2023-01-11T00:19:09.199Z,99535.81
2023-01-11T00:21:35.994Z,99545.88
2023-01-11T00:24:03.690Z,99539.34
2023-01-11T00:26:30.436Z,99541.84
2023-01-11T00:28:57.746Z,99544.66
2023-01-11T00:31:24.659Z,99534.03
2023-01-11T00:33:51.489Z,99529.19
2023-01-11T00:36:18.235Z,99518.44
2023-01-11T00:38:46.152Z,99524.16
2023-01-11T00:41:12.884Z,99526.03
2023-01-11T00:43:40.804Z,99520.19
2023-01-11T00:46:07.654Z,99519.81
2023-01-11T00:48:34.443Z,99522.56
2023-01-11T00:51:01.246Z,99520.78
2023-01-11T00:53:28.088Z,99526.59
2023-01-11T00:55:54.836Z,99524.28
2023-01-11T00:58:21.675Z,99521.09
2023-01-11T01:00:48.444Z,99522.81
2023-01-11T01:03:15.281Z,99519.84
2023-01-11T01:05:42.345Z,99530.78
2023-01-11T01:08:09.162Z,99530.81
2023-01-11T01:10:35.977Z,99526.44
2023-01-11T01:13:03.186Z,99521.69
2023-01-11T01:15:29.955Z,99533.41
2023-01-11T01:17:56.782Z,99524.50
2023-01-11T01:20:23.659Z,99517.81
2023-01-11T01:22:50.607Z,99514.53
2023-01-11T01:25:17.400Z,99524.50
2023-01-11T01:27:44.156Z,99509.81
2023-01-11T01:30:10.987Z,99516.84
2023-01-11T01:32:37.810Z,99511.97
2023-01-11T01:35:04.695Z,99516.34
2023-01-11T01:37:31.463Z,99515.19
2023-01-11T01:39:58.347Z,99513.88
2023-01-11T01:42:27.463Z,99513.63
2023-01-11T01:44:54.298Z,99509.03
2023-01-11T01:47:21.174Z,99513.63
2023-01-11T01:49:47.993Z,99512.09
2023-01-11T01:52:15.103Z,99516.91
2023-01-11T01:54:41.874Z,99507.16
2023-01-11T01:57:08.651Z,99506.75
2023-01-11T01:59:35.460Z,99512.00
2023-01-11T02:02:04.674Z,99515.19
2023-01-11T02:04:31.517Z,99502.66
2023-01-11T02:06:58.368Z,99498.97
2023-01-11T02:09:26.131Z,99504.28
2023-01-11T02:11:52.954Z,99507.56
2023-01-11T02:14:19.815Z,99495.00
2023-01-11T02:16:46.688Z,99500.69
2023-01-11T02:19:13.530Z,99492.63
2023-01-11T02:21:40.396Z,99487.47
2023-01-11T02:24:07.646Z,99495.72
2023-01-11T02:26:34.942Z,99487.84
2023-01-11T02:29:01.865Z,99497.88
2023-01-11T02:31:28.799Z,99485.13
2023-01-11T02:33:55.971Z,99495.72
2023-01-11T02:36:22.858Z,99483.94
2023-01-11T02:38:50.711Z,99483.69
2023-01-11T02:41:17.506Z,99474.34
2023-01-11T02:43:44.598Z,99472.72
2023-01-11T02:46:11.492Z,99460.84
2023-01-11T02:48:38.667Z,99466.38
2023-01-11T02:51:05.527Z,99455.94
2023-01-11T02:53:32.435Z,99463.22
2023-01-11T02:55:59.224Z,99465.25
2023-01-11T02:58:26.085Z,99466.03
2023-01-11T03:00:53.880Z,99467.91
2023-01-11T03:03:20.761Z,99462.09
2023-01-11T03:05:47.570Z,99456.53
2023-01-11T03:08:14.512Z,99456.03
2023-01-11T03:10:41.461Z,99448.19
2023-01-11T03:13:08.220Z,99458.78
2023-01-11T03:15:35.067Z,99451.31
2023-01-11T03:18:01.862Z,99455.78
2023-01-11T03:20:28.756Z,99455.75
2023-01-11T03:22:55.568Z,99462.53
2023-01-11T03:25:22.363Z,99466.72
2023-01-11T03:27:49.227Z,99462.50
2023-01-11T03:30:16.117Z,99459.84
2023-01-11T03:32:43.069Z,99455.09
2023-01-11T03:35:09.862Z,99452.84
2023-01-11T03:37:36.952Z,99449.44
2023-01-11T03:40:04.245Z,99448.41
2023-01-11T03:42:31.075Z,99451.75
2023-01-11T03:44:57.935Z,99445.69
2023-01-11T03:47:26.757Z,99446.22
2023-01-11T03:49:53.549Z,99445.69
2023-01-11T03:52:20.364Z,99444.06
2023-01-11T03:54:47.201Z,99438.84
2023-01-11T03:57:13.984Z,99437.44
2023-01-11T03:59:40.792Z,99441.66
2023-01-11T04:02:07.552Z,99446.44
2023-01-11T04:04:34.630Z,99440.22
2023-01-11T04:07:01.441Z,99441.94
2023-01-11T04:09:28.449Z,99442.22
2023-01-11T04:11:55.455Z,99441.94
2023-01-11T04:14:22.421Z,99447.97
2023-01-11T04:16:49.294Z,99442.75
2023-01-11T04:19:16.066Z,99438.88
2023-01-11T04:21:42.800Z,99443.63
2023-01-11T04:24:09.624Z,99436.03
2023-01-11T04:26:36.677Z,99434.56
2023-01-11T04:29:03.438Z,99433.28
2023-01-11T04:31:30.533Z,99434.84
2023-01-11T04:33:57.347Z,99433.28
2023-01-11T04:36:26.407Z,99431.66
2023-01-11T04:38:53.289Z,99434.38
2023-01-11T04:41:22.100Z,99437.09
2023-01-11T04:43:50.983Z,99430.50
2023-01-11T04:46:18.115Z,99425.81
2023-01-11T04:48:44.942Z,99426.06
2023-01-11T04:51:12.217Z,99423.47
2023-01-11T04:53:39.029Z,99423.22
2023-01-11T04:56:05.804Z,99419.50
2023-01-11T04:58:32.626Z,99407.75
2023-01-11T05:00:59.505Z,99409.31
2023-01-11T05:03:26.527Z,99401.66
2023-01-11T05:05:54.548Z,99399.81
2023-01-11T05:08:21.418Z,99398.44
2023-01-11T05:10:48.666Z,99399.56
2023-01-11T05:13:15.493Z,99396.47
2023-01-11T05:15:42.436Z,99396.53
2023-01-11T05:18:09.337Z,99388.94
2023-01-11T05:20:36.197Z,99386.25
2023-01-11T05:23:04.530Z,99390.44
2023-01-11T05:25:31.388Z,99391.78
2023-01-11T05:27:58.213Z,99394.69
2023-01-11T05:30:25.099Z,99386.91
2023-01-11T05:32:51.929Z,99388.03
2023-01-11T05:35:18.772Z,99384.31
2023-01-11T05:37:45.591Z,99387.59
2023-01-11T05:40:12.396Z,99403.91
2023-01-11T05:42:39.200Z,99396.78
2023-01-11T05:45:06.143Z,99405.47
2023-01-11T05:47:33.090Z,99409.75
2023-01-11T05:50:00.318Z,99398.66
2023-01-11T05:52:27.116Z,99401.97
2023-01-11T05:54:54.120Z,99398.72
2023-01-11T05:57:21.274Z,99400.78
2023-01-11T05:59:48.119Z,99408.66
2023-01-11T06:02:15.167Z,99399.44
2023-01-11T06:04:42.057Z,99397.41
2023-01-11T06:07:08.909Z,99395.69
2023-01-11T06:09:35.755Z,99391.13
2023-01-11T06:12:03.360Z,99393.66
2023-01-11T06:14:30.255Z,99389.41
2023-01-11T06:16:57.368Z,99395.44
2023-01-11T06:19:24.209Z,99392.22
2023-01-11T06:21:51.100Z,99402.66
2023-01-11T06:24:19.171Z,99404.41
2023-01-11T06:26:46.039Z,99398.47
2023-01-11T06:29:12.867Z,99400.09
2023-01-11T06:31:39.749Z,99396.00
2023-01-11T06:34:07.074Z,99399.38
2023-01-11T06:36:33.940Z,99395.84
2023-01-11T06:39:00.799Z,99395.22
2023-01-11T06:41:27.654Z,99391.53
2023-01-11T06:43:54.730Z,99390.00
2023-01-11T06:46:21.803Z,99392.22
2023-01-11T06:48:48.690Z,99399.75
2023-01-11T06:51:15.701Z,99387.94
2023-01-11T06:53:42.615Z,99397.41
2023-01-11T06:56:09.453Z,99398.16
2023-01-11T06:58:36.414Z,99397.63
2023-01-11T07:01:03.269Z,99394.31
2023-01-11T07:03:30.453Z,99397.03
2023-01-11T07:05:57.601Z,99404.47
2023-01-11T07:08:24.835Z,99406.03
2023-01-11T07:10:51.824Z,99407.63
2023-01-11T07:13:18.730Z,99403.13
2023-01-11T07:15:45.518Z,99398.81
2023-01-11T07:18:12.463Z,99392.44
2023-01-11T07:20:39.663Z,99404.56
2023-01-11T07:23:09.071Z,99400.22
2023-01-11T07:25:35.926Z,99402.03
2023-01-11T07:28:02.844Z,99398.50
2023-01-11T07:30:30.033Z,99404.34
2023-01-11T07:32:57.005Z,99398.31
2023-01-11T07:35:23.946Z,99397.34
2023-01-11T07:37:50.733Z,99406.59
2023-01-11T07:40:17.568Z,99409.03
2023-01-11T07:42:44.526Z,99406.41
2023-01-11T07:45:11.398Z,99386.25
2023-01-11T07:47:38.733Z,99386.75
2023-01-11T07:50:05.559Z,99397.16
2023-01-11T07:52:32.661Z,99396.28
2023-01-11T07:54:59.498Z,99393.06
2023-01-11T07:57:26.474Z,99392.69
2023-01-11T07:59:53.296Z,99400.25
2023-01-11T08:02:20.187Z,99391.63
2023-01-11T08:04:47.336Z,99388.88
2023-01-11T08:07:14.245Z,99391.47
2023-01-11T08:09:41.083Z,99386.97
2023-01-11T08:12:08.123Z,99393.47
2023-01-11T08:14:34.977Z,99396.63
2023-01-11T08:17:02.155Z,99397.63
2023-01-11T08:19:29.453Z,99395.31
2023-01-11T08:21:56.389Z,99394.38
2023-01-11T08:24:23.177Z,99391.94
2023-01-11T08:26:50.164Z,99388.72
2023-01-11T08:29:16.995Z,99388.13
2023-01-11T08:31:43.843Z,99379.47
2023-01-11T08:34:10.867Z,99387.31
2023-01-11T08:36:37.698Z,99395.50
2023-01-11T08:39:04.553Z,99398.91
2023-01-11T08:41:31.636Z,99402.13
2023-01-11T08:43:58.480Z,99401.56
2023-01-11T08:46:25.431Z,99405.78
2023-01-11T08:48:52.360Z,99409.53
2023-01-11T08:51:20.917Z,99411.13
2023-01-11T08:53:47.843Z,99410.88
2023-01-11T08:56:14.714Z,99400.47
2023-01-11T08:58:42.744Z,99401.59
2023-01-11T09:01:09.653Z,99408.25
2023-01-11T09:03:36.480Z,99411.25
2023-01-11T09:06:03.652Z,99397.31
2023-01-11T09:08:30.480Z,99408.44
2023-01-11T09:10:57.392Z,99398.63
2023-01-11T09:13:24.261Z,99396.81
2023-01-11T09:15:51.291Z,99400.59
2023-01-11T09:18:18.375Z,99400.47
2023-01-11T09:20:45.234Z,99395.38
2023-01-11T09:23:12.320Z,99390.69
2023-01-11T09:25:39.168Z,99380.31
2023-01-11T09:28:06.016Z,99380.28
2023-01-11T09:30:32.880Z,99381.03
2023-01-11T09:33:00.906Z,99384.44
2023-01-11T09:35:27.770Z,99373.38
2023-01-11T09:37:54.598Z,99374.22
2023-01-11T09:40:21.555Z,99364.72
2023-01-11T09:42:48.353Z,99366.75
2023-01-11T09:45:15.436Z,99368.16
2023-01-11T09:47:43.703Z,99362.34
2023-01-11T09:50:10.626Z,99365.69
2023-01-11T09:52:37.662Z,99359.03
2023-01-11T09:55:04.481Z,99352.94
2023-01-11T09:57:31.294Z,99350.16
2023-01-11T09:59:58.196Z,99357.47
2023-01-11T10:02:29.142Z,99350.75
2023-01-11T10:04:56.090Z,99338.59
2023-01-11T10:07:23.181Z,99339.66
2023-01-11T10:18:26.736Z,99337.63
2023-01-11T10:18:29.108Z,99329.81
2023-01-11T10:20:58.045Z,99340.28
2023-01-11T10:23:24.925Z,99339.22
2023-01-11T10:25:52.062Z,99334.84
2023-01-11T10:28:18.898Z,99332.69
2023-01-11T10:30:45.747Z,99338.97
2023-01-11T10:33:12.769Z,99330.53
2023-01-11T10:35:39.670Z,99334.47
2023-01-11T10:38:08.643Z,99324.22
2023-01-11T10:40:35.450Z,99316.53
2023-01-11T10:43:02.838Z,99311.50
2023-01-11T10:45:29.867Z,99317.88
2023-01-11T10:47:56.663Z,99318.69
2023-01-11T10:50:23.529Z,99309.94
2023-01-11T10:52:50.397Z,99313.44
2023-01-11T10:55:17.733Z,99313.44
2023-01-11T10:58:02.098Z,99310.88
2023-01-11T11:00:34.176Z,99306.94
2023-01-11T11:03:01.807Z,99301.38
2023-01-11T11:05:29.243Z,99298.47
2023-01-11T11:07:56.132Z,99304.03
2023-01-11T11:10:23.205Z,99291.06
2023-01-11T11:12:50.011Z,99287.44
2023-01-11T11:15:16.850Z,99292.44
2023-01-11T11:17:43.727Z,99285.28
2023-01-11T11:20:10.665Z,99283.47
2023-01-11T11:22:37.683Z,99266.78
2023-01-11T11:25:04.553Z,99263.34
2023-01-11T11:27:31.395Z,99258.34
2023-01-11T11:29:58.212Z,99250.63
2023-01-11T11:32:25.526Z,99246.56
2023-01-11T11:34:52.339Z,99237.31
2023-01-11T11:37:19.146Z,99234.69
2023-01-11T11:39:46.191Z,99230.97
2023-01-11T11:42:13.055Z,99222.97
2023-01-11T11:44:39.831Z,99223.97
2023-01-11T11:47:06.649Z,99227.81
2023-01-11T11:49:33.589Z,99219.69
2023-01-11T11:52:00.442Z,99227.06
2023-01-11T11:54:27.320Z,99226.34
2023-01-11T11:56:54.140Z,99227.50
2023-01-11T11:59:22.114Z,99226.88
2023-01-11T12:01:49.230Z,99227.78
2023-01-11T12:04:16.239Z,99217.06
2023-01-11T12:06:43.265Z,99219.69
2023-01-11T12:09:10.050Z,99216.53
2023-01-11T12:11:37.060Z,99221.03
2023-01-11T12:14:04.114Z,99217.38
2023-01-11T12:16:30.912Z,99209.94
2023-01-11T12:18:57.775Z,99210.38
2023-01-11T12:21:24.661Z,99204.34
2023-01-11T12:23:51.503Z,99203.63
2023-01-11T12:26:18.360Z,99206.63
2023-01-11T12:28:45.377Z,99203.44
2023-01-11T12:31:12.256Z,99197.28
2023-01-11T12:33:39.225Z,99187.38
2023-01-11T12:36:06.029Z,99185.44
2023-01-11T12:38:32.821Z,99178.53
2023-01-11T12:40:59.668Z,99171.75
2023-01-11T12:43:26.493Z,99161.59
2023-01-11T12:45:53.510Z,99152.91
2023-01-11T12:48:20.654Z,99154.97
2023-01-11T12:50:47.666Z,99155.31
2023-01-11T12:53:14.625Z,99147.75
2023-01-11T12:55:41.673Z,99146.06
2023-01-11T12:58:08.594Z,99139.28
2023-01-11T13:00:35.945Z,99148.94
2023-01-11T13:03:02.790Z,99142.72
2023-01-11T13:05:29.766Z,99136.72
2023-01-11T13:07:56.715Z,99147.97
2023-01-11T13:10:23.738Z,99136.59
2023-01-11T13:12:50.498Z,99139.28
2023-01-11T13:15:17.354Z,99141.28
2023-01-11T13:17:44.302Z,99130.00
2023-01-11T13:20:11.185Z,99129.44
2023-01-11T13:22:38.059Z,99125.88
2023-01-11T13:25:05.033Z,99126.72
2023-01-11T13:27:32.122Z,99126.03
2023-01-11T13:29:59.157Z,99129.28
2023-01-11T13:32:26.995Z,99118.13
2023-01-11T13:34:53.907Z,99126.06
2023-01-11T13:37:20.847Z,99124.50
2023-01-11T13:39:47.731Z,99129.03
2023-01-11T13:42:14.647Z,99123.03
2023-01-11T13:44:41.468Z,99125.97
2023-01-11T13:47:08.481Z,99128.97
2023-01-11T13:49:35.346Z,99131.56
2023-01-11T13:52:02.226Z,99130.09
2023-01-11T13:54:29.384Z,99134.41
2023-01-11T13:56:56.896Z,99133.53
2023-01-11T13:59:24.113Z,99135.38
2023-01-11T14:01:51.062Z,99138.44
2023-01-11T14:04:18.274Z,99134.03
2023-01-11T14:06:45.217Z,99141.38
2023-01-11T14:09:12.293Z,99139.16
2023-01-11T14:11:39.383Z,99137.72
2023-01-11T14:14:06.212Z,99137.81
2023-01-11T14:16:33.155Z,99145.00
2023-01-11T14:19:00.096Z,99142.06
2023-01-11T14:21:26.955Z,99142.38
2023-01-11T14:23:54.498Z,99140.81
2023-01-11T14:26:21.426Z,99142.19
2023-01-11T14:28:48.359Z,99140.59
2023-01-11T14:31:15.223Z,99135.25
2023-01-11T14:33:42.326Z,99130.75
2023-01-11T14:36:09.284Z,99134.88
2023-01-11T14:38:36.058Z,99123.69
2023-01-11T14:41:02.924Z,99125.16
2023-01-11T14:43:29.822Z,99124.53
2023-01-11T14:45:56.807Z,99120.44
2023-01-11T14:48:23.727Z,99117.44
2023-01-11T14:50:50.779Z,99103.69
2023-01-11T14:53:17.658Z,99093.84
2023-01-11T14:55:44.605Z,99094.56
2023-01-11T14:58:11.636Z,99105.53
2023-01-11T15:00:39.903Z,99115.53
2023-01-11T15:03:06.763Z,99118.66
2023-01-11T15:05:33.718Z,99101.78
2023-01-11T15:08:00.583Z,99099.75
2023-01-11T15:10:27.518Z,99099.75
2023-01-11T15:12:54.449Z,99094.97
2023-01-11T15:15:21.279Z,99099.53
2023-01-11T15:17:48.102Z,99089.97
2023-01-11T15:20:15.138Z,99080.53
2023-01-11T15:22:42.190Z,99082.72
2023-01-11T15:25:09.001Z,99082.66
2023-01-11T15:27:35.815Z,99076.47
2023-01-11T15:30:02.753Z,99079.38
2023-01-11T15:32:30.028Z,99073.75
2023-01-11T15:34:57.214Z,99078.59
2023-01-11T15:37:24.052Z,99093.16
2023-01-11T15:39:50.979Z,99084.25
2023-01-11T15:42:17.879Z,99090.34
2023-01-11T15:44:44.821Z,99081.94
2023-01-11T15:47:11.779Z,99086.66
2023-01-11T15:49:38.636Z,99078.53
2023-01-11T15:52:05.531Z,99083.25
2023-01-11T15:54:32.410Z,99074.59
2023-01-11T15:56:59.445Z,99073.44
2023-01-11T15:59:26.274Z,99086.41
2023-01-11T16:01:53.149Z,99081.75
2023-01-11T16:04:20.259Z,99080.03
2023-01-11T16:06:47.201Z,99077.03
2023-01-11T16:09:14.186Z,99082.00
2023-01-11T16:11:41.048Z,99074.09
2023-01-11T16:14:08.090Z,99077.88
2023-01-11T16:16:35.183Z,99075.19
2023-01-11T16:19:02.287Z,99077.09
2023-01-11T16:21:29.641Z,99082.13
2023-01-11T16:23:56.588Z,99075.00
2023-01-11T16:26:23.543Z,99077.94
2023-01-11T16:28:50.916Z,99078.72
2023-01-11T16:31:17.817Z,99070.00
2023-01-11T16:33:44.676Z,99075.38
2023-01-11T16:36:11.504Z,99074.19
2023-01-11T16:38:38.358Z,99075.75
2023-01-11T16:41:06.055Z,99074.38
2023-01-11T16:43:35.366Z,99070.09
2023-01-11T16:46:02.245Z,99071.22
2023-01-11T16:48:29.139Z,99086.38
2023-01-11T16:50:56.071Z,99081.09
2023-01-11T16:53:22.916Z,99066.19
2023-01-11T16:55:49.756Z,99078.94
2023-01-11T16:58:17.067Z,99068.19
2023-01-11T17:00:43.921Z,99073.75
2023-01-11T17:03:11.019Z,99063.63
2023-01-11T17:05:38.885Z,99065.63
2023-01-11T17:08:05.737Z,99058.97
2023-01-11T17:10:32.523Z,99075.84
2023-01-11T17:12:59.474Z,99078.25
2023-01-11T17:15:26.195Z,99084.53
2023-01-11T17:17:53.004Z,99081.94
2023-01-11T17:20:19.866Z,99071.81
2023-01-11T17:22:46.737Z,99069.41
2023-01-11T17:25:13.700Z,99074.13
2023-01-11T17:27:40.777Z,99074.34
2023-01-11T17:30:07.650Z,99075.25
2023-01-11T17:32:34.659Z,99078.22
2023-01-11T17:35:01.600Z,99077.81
2023-01-11T17:37:28.521Z,99080.97
2023-01-11T17:39:55.398Z,99077.94
2023-01-11T17:42:23.247Z,99075.75
2023-01-11T17:44:50.074Z,99076.59
2023-01-11T17:47:17.042Z,99073.75
2023-01-11T17:49:44.085Z,99071.22
2023-01-11T17:52:10.889Z,99070.34
2023-01-11T17:54:37.801Z,99067.88
2023-01-11T17:57:04.904Z,99061.94
2023-01-11T17:59:32.825Z,99062.66
2023-01-11T18:01:59.771Z,99063.44
2023-01-11T18:04:26.689Z,99063.69
2023-01-11T18:06:53.867Z,99054.69
2023-01-11T18:09:21.343Z,99057.84
2023-01-11T18:11:48.301Z,99061.28
2023-01-11T18:14:16.563Z,99054.84
2023-01-11T18:16:43.547Z,99060.03
2023-01-11T18:19:10.482Z,99060.03
2023-01-11T18:21:37.467Z,99060.91
2023-01-11T18:24:05.823Z,99058.41
2023-01-11T18:26:32.787Z,99059.91
2023-01-11T18:29:00.114Z,99052.16
2023-01-11T18:31:27.399Z,99049.63
2023-01-11T18:33:54.610Z,99058.97
2023-01-11T18:36:21.651Z,99057.25
2023-01-11T18:38:48.848Z,99059.31
2023-01-11T18:41:17.380Z,99059.59
2023-01-11T18:43:44.423Z,99055.91
2023-01-11T18:46:11.348Z,99057.34
2023-01-11T18:48:38.390Z,99055.28
2023-01-11T18:51:05.266Z,99052.00
2023-01-11T18:53:32.553Z,99052.44
2023-01-11T18:55:59.974Z,99056.63
2023-01-11T18:58:27.141Z,99067.31
2023-01-11T19:00:54.997Z,99063.91
2023-01-11T19:03:24.755Z,99069.53
2023-01-11T19:05:51.713Z,99080.00
2023-01-11T19:08:18.888Z,99069.78
2023-01-11T19:10:46.128Z,99069.78
2023-01-11T19:13:13.444Z,99068.22
2023-01-11T19:15:40.950Z,99059.31
2023-01-11T19:18:08.275Z,99056.69
2023-01-11T19:20:35.633Z,99058.47
2023-01-11T19:23:03.342Z,99056.56
2023-01-11T19:25:31.437Z,99060.75
2023-01-11T19:27:58.782Z,99050.94
2023-01-11T19:30:26.129Z,99050.53
2023-01-11T19:32:53.416Z,99053.38
2023-01-11T19:35:21.001Z,99056.19
2023-01-11T19:37:48.240Z,99051.31
2023-01-11T19:40:16.280Z,99058.59
2023-01-11T19:42:43.841Z,99067.66
2023-01-11T19:45:10.875Z,99063.28
2023-01-11T19:47:38.383Z,99063.06
2023-01-11T19:50:05.685Z,99064.56
2023-01-11T19:52:36.417Z,99064.16
2023-01-11T19:55:03.374Z,99069.69
2023-01-11T19:57:32.380Z,99071.41
2023-01-11T19:59:59.921Z,99073.91
2023-01-11T20:02:27.289Z,99082.19
2023-01-11T20:04:54.863Z,99074.47
2023-01-11T20:07:21.975Z,99078.78
2023-01-11T20:09:49.205Z,99080.84
2023-01-11T20:12:16.567Z,99078.56
2023-01-11T20:14:43.713Z,99079.72
2023-01-11T20:17:10.882Z,99087.94
2023-01-11T20:19:37.908Z,99088.13
2023-01-11T20:22:04.733Z,99090.44
2023-01-11T20:24:32.871Z,99085.16
2023-01-11T20:27:00.142Z,99086.84
2023-01-11T20:29:28.496Z,99096.50
2023-01-11T20:31:58.230Z,99085.53
2023-01-11T20:34:32.523Z,99095.25
2023-01-11T20:36:59.765Z,99095.75
2023-01-11T20:39:27.325Z,99098.97
2023-01-11T20:41:55.075Z,99104.19
2023-01-11T20:44:22.600Z,99105.47
2023-01-11T20:46:49.502Z,99106.53
2023-01-11T20:49:18.103Z,99110.84
2023-01-11T20:51:48.401Z,99112.34
2023-01-11T20:54:16.956Z,99120.50
2023-01-11T20:56:44.776Z,99116.94
2023-01-11T20:59:17.835Z,99117.38
2023-01-11T21:01:45.327Z,99138.31
2023-01-11T21:04:12.666Z,99127.63
2023-01-11T21:06:39.595Z,99132.47
2023-01-11T21:09:06.572Z,99134.25
2023-01-11T21:11:33.456Z,99125.75
2023-01-11T21:14:01.015Z,99132.22
2023-01-11T21:16:27.891Z,99135.88
2023-01-11T21:18:54.916Z,99140.75
2023-01-11T21:21:21.955Z,99126.44
2023-01-11T21:23:49.501Z,99131.34
2023-01-11T21:26:16.544Z,99143.75
2023-01-11T21:28:43.614Z,99140.22
2023-01-11T21:31:10.836Z,99138.06
2023-01-11T21:33:39.364Z,99139.94
2023-01-11T21:36:06.271Z,99138.38
2023-01-11T21:38:33.324Z,99135.03
2023-01-11T21:41:00.474Z,99137.44
2023-01-11T21:43:29.110Z,99144.25
2023-01-11T21:45:56.367Z,99138.50
2023-01-11T21:48:25.531Z,99145.31
2023-01-11T21:50:52.292Z,99148.53
2023-01-11T21:53:19.376Z,99143.06
2023-01-11T21:55:51.785Z,99154.03
2023-01-11T21:58:18.659Z,99156.22
2023-01-11T22:00:45.804Z,99164.34
2023-01-11T22:03:14.441Z,99163.81
2023-01-11T22:05:41.287Z,99166.44
2023-01-11T22:08:08.700Z,99165.66
2023-01-11T22:10:35.666Z,99176.81
2023-01-11T22:13:02.550Z,99178.66
2023-01-11T22:15:29.483Z,99183.91
2023-01-11T22:17:56.432Z,99186.53
2023-01-11T22:20:24.906Z,99192.56
2023-01-11T22:22:51.779Z,99193.97
2023-01-11T22:25:19.635Z,99195.69
2023-01-11T22:27:48.900Z,99202.66
2023-01-11T22:30:15.732Z,99209.13
2023-01-11T22:32:43.021Z,99210.41
2023-01-11T22:35:10.412Z,99222.31
2023-01-11T22:37:37.472Z,99215.13
2023-01-11T22:40:04.328Z,99221.59
2023-01-11T22:42:31.136Z,99240.25
2023-01-11T22:44:58.087Z,99236.19
2023-01-11T22:47:25.100Z,99227.16
2023-01-11T22:49:52.287Z,99225.91
2023-01-11T22:52:19.149Z,99227.41
2023-01-11T22:54:46.619Z,99227.69
2023-01-11T22:57:13.429Z,99224.16
2023-01-11T22:59:40.337Z,99230.72
2023-01-11T23:02:07.245Z,99228.78
2023-01-11T23:04:34.201Z,99239.28
2023-01-11T23:07:01.286Z,99233.34
2023-01-11T23:09:28.110Z,99224.44
2023-01-11T23:11:54.895Z,99224.56
2023-01-11T23:14:21.897Z,99217.13
2023-01-11T23:16:50.908Z,99229.25
2023-01-11T23:19:17.778Z,99231.66
2023-01-11T23:21:45.812Z,99223.78
2023-01-11T23:24:12.677Z,99228.34
2023-01-11T23:26:41.994Z,99231.53
2023-01-11T23:29:08.863Z,99226.28
2023-01-11T23:31:39.994Z,99234.84
2023-01-11T23:34:07.142Z,99237.38
2023-01-11T23:36:35.847Z,99231.44
2023-01-11T23:39:02.859Z,99239.91
2023-01-11T23:41:29.826Z,99239.25
2023-01-11T23:43:56.892Z,99244.41
2023-01-11T23:46:23.753Z,99256.13
2023-01-11T23:48:50.605Z,99241.56
2023-01-11T23:51:17.457Z,99249.00
2023-01-11T23:53:44.642Z,99247.00
2023-01-11T23:56:12.895Z,99252.53
2023-01-11T23:58:39.746Z,99243.22
